Time;durP1;ratioP1;P1;durP2;ratioP2;P2;SDS_P1;SDS_P2;PMS_P1;PMS_P2;Temp;Humidity;BMP_temperature;BMP_pressure;BME280_temperature;BME280_humidity;BME280_pressure;Samples;Min_cycle;Max_cycle;Signal;HPM_P1;HPM_P2
2024/03/15 00:02:24;;;;;;;42.05;6.45;;;11.30;99.90;;;;;;5011942;28;20043;-75
2024/03/15 00:04:51;;;;;;;43.38;6.18;;;11.40;99.90;;;;;;5046052;28;20357;-75
2024/03/15 00:07:18;;;;;;;44.35;6.82;;;11.40;99.90;;;;;;5046050;28;20025;-75
2024/03/15 00:09:44;;;;;;;38.88;5.68;;;11.40;99.90;;;;;;5027778;28;20218;-76
2024/03/15 00:12:10;;;;;;;46.20;6.72;;;11.40;99.90;;;;;;5012021;28;20249;-75
2024/03/15 00:14:37;;;;;;;25.92;3.67;;;11.30;99.90;;;;;;5012301;28;20029;-76
2024/03/15 00:17:03;;;;;;;36.47;4.88;;;11.40;99.90;;;;;;5012153;28;20052;-75
2024/03/15 00:19:28;;;;;;;51.55;7.13;;;11.40;99.90;;;;;;5028858;28;20021;-75
2024/03/15 00:21:54;;;;;;;41.80;5.63;;;11.30;99.90;;;;;;5028222;28;20025;-75
2024/03/15 00:24:19;;;;;;;37.78;5.30;;;11.40;99.90;;;;;;5028190;28;20033;-75
2024/03/15 00:26:46;;;;;;;39.13;5.75;;;11.40;99.90;;;;;;5011746;28;20025;-75
2024/03/15 00:29:12;;;;;;;39.75;6.13;;;11.40;99.90;;;;;;5011809;28;20060;-75
2024/03/15 00:31:40;;;;;;;25.55;4.95;;;11.40;99.90;;;;;;5028061;28;20040;-75
2024/03/15 00:34:06;;;;;;;20.80;3.17;;;11.40;99.90;;;;;;5045543;28;20030;-75
2024/03/15 00:36:33;;;;;;;31.00;4.60;;;11.40;99.90;;;;;;5028001;28;20295;-76
2024/03/15 00:38:58;;;;;;;37.50;4.82;;;11.40;99.90;;;;;;5045591;28;20029;-76
2024/03/15 00:41:24;;;;;;;40.95;6.15;;;11.40;99.90;;;;;;5044440;28;20148;-76
2024/03/15 00:43:51;;;;;;;40.20;5.10;;;11.30;99.90;;;;;;5011571;28;20067;-75
2024/03/15 00:46:17;;;;;;;42.00;5.90;;;11.30;99.90;;;;;;5027882;28;20108;-76
2024/03/15 00:48:43;;;;;;;37.50;6.35;;;11.30;99.90;;;;;;5011484;28;20195;-76
2024/03/15 00:51:09;;;;;;;22.27;5.45;;;11.30;99.90;;;;;;5028198;28;20030;-76
2024/03/15 00:53:36;;;;;;;45.72;6.18;;;11.20;99.90;;;;;;5045138;28;20107;-76
2024/03/15 00:56:03;;;;;;;33.03;4.82;;;11.20;99.90;;;;;;5028281;28;20017;-76
2024/03/15 00:58:30;;;;;;;31.38;4.95;;;11.20;99.90;;;;;;5045446;28;20270;-76
2024/03/15 01:00:56;;;;;;;41.20;6.05;;;11.20;99.90;;;;;;5045367;28;20025;-75
2024/03/15 01:03:23;;;;;;;44.72;6.93;;;11.20;99.90;;;;;;5045100;28;20036;-75
2024/03/15 01:05:48;;;;;;;46.53;5.85;;;11.20;99.90;;;;;;5044890;28;20030;-76
2024/03/15 01:08:14;;;;;;;47.60;6.03;;;11.20;99.90;;;;;;5011468;28;20043;-76
2024/03/15 01:10:40;;;;;;;34.20;5.65;;;11.20;99.90;;;;;;5028003;28;20033;-76
2024/03/15 01:13:05;;;;;;;24.27;4.63;;;11.20;99.90;;;;;;5027967;28;20013;-76
2024/03/15 01:15:31;;;;;;;47.60;6.63;;;11.10;99.90;;;;;;5045117;28;20038;-76
2024/03/15 01:17:57;;;;;;;42.75;5.97;;;11.10;99.90;;;;;;5011346;28;20056;-75
2024/03/15 01:20:23;;;;;;;38.67;5.68;;;11.20;99.90;;;;;;5027703;28;20021;-76
2024/03/15 01:22:49;;;;;;;37.35;5.88;;;11.20;99.90;;;;;;5031176;28;20052;-75
2024/03/15 01:25:15;;;;;;;44.38;6.50;;;11.20;99.90;;;;;;5031646;28;20029;-76
2024/03/15 01:27:40;;;;;;;51.85;7.43;;;11.10;99.90;;;;;;5031501;28;20033;-75
2024/03/15 01:30:09;;;;;;;21.77;4.30;;;11.10;99.90;;;;;;5048932;28;20183;-76
2024/03/15 01:32:35;;;;;;;45.92;7.10;;;11.10;99.90;;;;;;5015381;28;20341;-75
2024/03/15 01:35:02;;;;;;;40.40;7.03;;;11.10;99.90;;;;;;5048893;28;20242;-75
2024/03/15 01:37:28;;;;;;;42.00;5.70;;;11.10;99.90;;;;;;5048819;28;20263;-76
2024/03/15 01:39:53;;;;;;;27.17;5.25;;;11.10;99.90;;;;;;5031266;28;20079;-76
2024/03/15 01:42:19;;;;;;;40.65;5.97;;;11.10;99.90;;;;;;5014777;28;20036;-77
2024/03/15 01:44:55;;;;;;;33.60;4.93;;;11.20;99.90;;;;;;5014765;28;20037;-76
2024/03/15 01:47:27;;;;;;;39.75;6.10;;;11.20;99.90;;;;;;5030879;28;20107;-77
2024/03/15 01:49:53;;;;;;;31.58;5.47;;;11.20;99.90;;;;;;5031441;28;20030;-77
2024/03/15 01:52:22;;;;;;;32.50;5.35;;;11.20;99.90;;;;;;5031033;28;20033;-76
2024/03/15 01:54:48;;;;;;;37.42;5.13;;;11.20;99.90;;;;;;5014696;28;20235;-75
2024/03/15 01:57:17;;;;;;;33.25;5.53;;;11.20;99.90;;;;;;5031095;28;20029;-75
2024/03/15 01:59:44;;;;;;;33.40;5.00;;;11.20;99.90;;;;;;5031091;28;20025;-76
2024/03/15 02:02:10;;;;;;;26.10;4.43;;;11.20;99.90;;;;;;5048323;28;20057;-75
2024/03/15 02:04:36;;;;;;;32.30;5.32;;;11.30;99.90;;;;;;5048360;28;20029;-76
2024/03/15 02:07:02;;;;;;;33.50;5.20;;;11.30;99.90;;;;;;5048801;28;20022;-75
2024/03/15 02:09:28;;;;;;;25.58;5.30;;;11.30;99.90;;;;;;5030749;28;20048;-76
2024/03/15 02:11:57;;;;;;;29.75;4.78;;;11.30;99.90;;;;;;5014336;28;20025;-76
2024/03/15 02:14:22;;;;;;;38.85;5.35;;;11.30;99.90;;;;;;5030818;28;20078;-76
2024/03/15 02:16:49;;;;;;;32.08;4.90;;;11.20;99.90;;;;;;5030737;28;20168;-75
2024/03/15 02:19:14;;;;;;;36.20;6.05;;;11.20;99.90;;;;;;5014110;28;20183;-75
2024/03/15 02:21:46;;;;;;;38.80;5.43;;;11.30;99.90;;;;;;5013863;28;20033;-76
2024/03/15 02:24:11;;;;;;;30.50;4.63;;;11.20;99.90;;;;;;5030866;28;20025;-76
2024/03/15 02:26:39;;;;;;;35.63;5.30;;;11.30;99.90;;;;;;5047987;28;20033;-76
2024/03/15 02:29:05;;;;;;;41.22;5.00;;;11.20;99.90;;;;;;5030774;28;20064;-76
2024/03/15 02:31:31;;;;;;;31.73;4.75;;;11.20;99.90;;;;;;5030561;28;20045;-76
2024/03/15 02:33:57;;;;;;;28.65;4.93;;;11.20;99.90;;;;;;5029598;28;20056;-76
2024/03/15 02:36:23;;;;;;;26.45;4.50;;;11.20;99.90;;;;;;5030357;28;20299;-76
2024/03/15 02:38:49;;;;;;;26.50;5.15;;;11.20;99.90;;;;;;5013943;28;20018;-76
2024/03/15 02:41:15;;;;;;;31.90;5.10;;;11.20;99.90;;;;;;5013819;28;20033;-75
2024/03/15 02:43:41;;;;;;;44.38;5.22;;;11.20;99.90;;;;;;5030359;28;20199;-77
2024/03/15 02:46:07;;;;;;;28.17;3.95;;;11.20;99.90;;;;;;5029714;28;20106;-78
2024/03/15 02:48:33;;;;;;;35.72;5.13;;;11.20;99.90;;;;;;5030117;28;20056;-77
2024/03/15 02:50:59;;;;;;;28.67;4.15;;;11.20;99.90;;;;;;5030059;28;20033;-76
2024/03/15 02:53:25;;;;;;;36.95;5.15;;;11.20;99.90;;;;;;5029878;28;20183;-76
2024/03/15 02:55:51;;;;;;;39.17;5.97;;;11.20;99.90;;;;;;5029892;28;20037;-76
2024/03/15 02:58:18;;;;;;;30.02;4.75;;;11.20;99.90;;;;;;5046242;28;20114;-76
2024/03/15 03:00:46;;;;;;;48.67;6.35;;;11.20;99.90;;;;;;5029945;28;20087;-77
2024/03/15 03:03:11;;;;;;;48.50;6.03;;;11.20;99.90;;;;;;5013417;28;20029;-76
2024/03/15 03:05:37;;;;;;;53.45;7.43;;;11.20;99.90;;;;;;5029653;28;20037;-76
2024/03/15 03:08:04;;;;;;;40.22;7.15;;;11.20;99.90;;;;;;5029702;28;20022;-76
2024/03/15 03:10:30;;;;;;;54.95;6.47;;;11.20;99.90;;;;;;5029857;28;20031;-76
2024/03/15 03:12:56;;;;;;;38.05;5.93;;;11.20;99.90;;;;;;5047103;28;20216;-76
2024/03/15 03:15:22;;;;;;;28.40;4.60;;;11.20;99.90;;;;;;5047010;28;20017;-76
2024/03/15 03:17:47;;;;;;;43.75;5.40;;;11.20;99.90;;;;;;5013096;28;20346;-76
2024/03/15 03:20:19;;;;;;;32.35;5.43;;;11.20;99.90;;;;;;5012994;28;20104;-76
2024/03/15 03:22:48;;;;;;;29.48;4.63;;;11.20;99.90;;;;;;5030281;28;20071;-76
2024/03/15 03:25:15;;;;;;;53.05;6.68;;;11.20;99.90;;;;;;5046467;28;20142;-76
2024/03/15 03:27:41;;;;;;;46.20;6.30;;;11.20;99.90;;;;;;5029334;28;20032;-76
2024/03/15 03:30:07;;;;;;;58.13;6.55;;;11.10;99.90;;;;;;5029211;28;20063;-76
2024/03/15 03:32:35;;;;;;;43.83;6.00;;;11.10;99.90;;;;;;5046731;28;20232;-76
2024/03/15 03:35:03;;;;;;;40.58;5.07;;;11.10;99.90;;;;;;5029485;28;20226;-76
2024/03/15 03:37:28;;;;;;;46.97;6.50;;;11.10;99.90;;;;;;5029639;28;20279;-76
2024/03/15 03:39:54;;;;;;;51.25;6.55;;;11.10;99.90;;;;;;5029241;28;20097;-76
2024/03/15 03:42:20;;;;;;;51.97;6.03;;;11.10;99.90;;;;;;5029149;28;20025;-76
2024/03/15 03:44:45;;;;;;;46.85;6.57;;;11.10;99.90;;;;;;5045847;28;20029;-75
2024/03/15 03:47:11;;;;;;;51.80;6.40;;;11.00;99.90;;;;;;5012337;28;20192;-76
2024/03/15 03:49:38;;;;;;;48.17;6.55;;;11.00;99.90;;;;;;5029102;28;20267;-76
2024/03/15 03:52:04;;;;;;;44.80;6.53;;;11.00;99.90;;;;;;5029147;28;20033;-76
2024/03/15 03:54:30;;;;;;;64.30;7.30;;;11.00;99.90;;;;;;5028933;28;20030;-76
2024/03/15 03:56:57;;;;;;;42.95;5.18;;;11.00;99.90;;;;;;5012552;28;20160;-76
2024/03/15 03:59:22;;;;;;;48.25;6.55;;;11.00;99.90;;;;;;5028982;28;20097;-76
2024/03/15 04:01:48;;;;;;;43.85;7.15;;;11.00;99.90;;;;;;5046158;28;20034;-76
2024/03/15 04:04:14;;;;;;;60.65;7.43;;;11.00;99.90;;;;;;5046034;28;20041;-76
2024/03/15 04:06:47;;;;;;;47.95;5.78;;;11.00;99.90;;;;;;5028905;28;20088;-76
2024/03/15 04:09:12;;;;;;;51.05;6.22;;;11.00;99.90;;;;;;5046119;28;20076;-76
2024/03/15 04:11:38;;;;;;;62.30;7.40;;;11.00;99.90;;;;;;5046010;28;20033;-76
2024/03/15 04:14:04;;;;;;;41.75;6.05;;;11.00;99.90;;;;;;5046038;28;20033;-76
2024/03/15 04:16:30;;;;;;;40.72;6.35;;;11.00;99.90;;;;;;5028366;28;20030;-77
2024/03/15 04:18:57;;;;;;;50.15;6.18;;;10.90;99.90;;;;;;5012327;28;20164;-76
2024/03/15 04:21:23;;;;;;;59.17;7.63;;;10.90;99.90;;;;;;5045834;28;20044;-76
2024/03/15 04:23:49;;;;;;;61.03;7.20;;;11.00;99.90;;;;;;5028276;28;20041;-76
2024/03/15 04:26:15;;;;;;;57.22;7.45;;;10.90;99.90;;;;;;5028411;28;20021;-76
2024/03/15 04:28:41;;;;;;;40.08;5.03;;;11.00;99.90;;;;;;5028537;28;20017;-76
2024/03/15 04:31:07;;;;;;;58.78;8.07;;;10.90;99.90;;;;;;5045838;28;20029;-76
2024/03/15 04:33:35;;;;;;;47.65;7.93;;;10.90;99.90;;;;;;5028116;28;20072;-76
2024/03/15 04:36:04;;;;;;;41.92;6.20;;;10.90;99.90;;;;;;5028732;28;20025;-76
2024/03/15 04:38:30;;;;;;;29.55;4.75;;;10.90;99.90;;;;;;5028688;28;20044;-76
2024/03/15 04:40:55;;;;;;;62.53;6.53;;;10.90;99.90;;;;;;5028291;28;20037;-76
2024/03/15 04:43:21;;;;;;;77.25;7.93;;;10.90;99.90;;;;;;5011542;28;20061;-77
2024/03/15 04:45:48;;;;;;;68.43;7.93;;;10.90;99.90;;;;;;5027923;28;20086;-77
2024/03/15 04:48:13;;;;;;;55.03;6.70;;;10.90;99.90;;;;;;5028133;28;20033;-76
2024/03/15 04:50:40;;;;;;;64.00;7.88;;;10.90;99.90;;;;;;5028174;28;20021;-77
2024/03/15 04:53:05;;;;;;;65.10;8.43;;;10.90;99.90;;;;;;5045574;28;20151;-76
2024/03/15 04:55:31;;;;;;;43.80;6.25;;;10.90;99.90;;;;;;5028224;28;20088;-76
2024/03/15 04:57:57;;;;;;;35.15;5.80;;;10.90;99.90;;;;;;5031749;28;20025;-76
2024/03/15 05:00:22;;;;;;;54.60;7.22;;;10.90;99.90;;;;;;5032128;28;20030;-76
2024/03/15 05:02:48;;;;;;;67.97;9.30;;;10.80;99.90;;;;;;5032597;28;20044;-75
2024/03/15 05:05:15;;;;;;;47.72;5.70;;;10.90;99.90;;;;;;5032053;28;20029;-76
2024/03/15 05:07:41;;;;;;;61.55;7.63;;;10.80;99.90;;;;;;5032251;28;20165;-76
2024/03/15 05:10:07;;;;;;;53.90;7.15;;;10.90;99.90;;;;;;5031969;28;20055;-76
2024/03/15 05:12:34;;;;;;;59.70;7.53;;;10.90;99.90;;;;;;5032097;28;20167;-76
2024/03/15 05:15:00;;;;;;;61.88;7.63;;;10.80;99.90;;;;;;5015831;28;20345;-76
2024/03/15 05:17:26;;;;;;;56.00;7.43;;;10.90;99.90;;;;;;5015148;28;20041;-76
2024/03/15 05:19:51;;;;;;;66.97;9.93;;;10.90;99.90;;;;;;5031597;28;20021;-76
2024/03/15 05:22:18;;;;;;;66.07;7.90;;;10.90;99.90;;;;;;5048041;28;20033;-76
2024/03/15 05:24:43;;;;;;;42.10;5.90;;;10.90;99.90;;;;;;5015392;28;20037;-75
2024/03/15 05:27:09;;;;;;;53.00;6.22;;;10.90;99.90;;;;;;5031557;28;20096;-74
2024/03/15 05:29:38;;;;;;;29.15;4.07;;;10.80;99.90;;;;;;5031442;28;20037;-75
2024/03/15 05:32:04;;;;;;;64.32;7.10;;;10.80;99.90;;;;;;5031902;28;20238;-75
2024/03/15 05:34:31;;;;;;;37.83;5.63;;;10.90;99.90;;;;;;5031568;28;20017;-76
2024/03/15 05:36:58;;;;;;;76.28;9.20;;;10.90;99.90;;;;;;5031434;28;20036;-75
2024/03/15 05:39:23;;;;;;;56.25;6.32;;;10.90;99.90;;;;;;5031429;28;20018;-75
2024/03/15 05:41:49;;;;;;;38.20;6.43;;;10.90;99.90;;;;;;5014709;28;20025;-75
2024/03/15 05:44:15;;;;;;;56.00;7.78;;;10.90;99.90;;;;;;5031150;28;20048;-75
2024/03/15 05:46:42;;;;;;;62.40;8.32;;;10.80;99.90;;;;;;5030919;28;20107;-75
2024/03/15 05:49:08;;;;;;;56.97;6.38;;;10.90;99.90;;;;;;5031174;28;20029;-75
2024/03/15 05:51:33;;;;;;;68.60;8.52;;;10.80;99.90;;;;;;5014524;28;20139;-75
2024/03/15 05:53:59;;;;;;;53.28;6.93;;;10.80;99.90;;;;;;5031044;28;20313;-75
2024/03/15 05:56:25;;;;;;;65.28;7.18;;;10.80;99.90;;;;;;5048470;28;20275;-76
2024/03/15 05:58:53;;;;;;;58.47;6.68;;;10.80;99.90;;;;;;5031207;28;20057;-74
2024/03/15 06:01:19;;;;;;;61.70;7.28;;;10.80;99.90;;;;;;5032407;28;20040;-75
2024/03/15 06:03:45;;;;;;;69.10;8.70;;;10.80;99.90;;;;;;5036163;28;20021;-75
2024/03/15 06:06:10;;;;;;;55.78;7.15;;;10.80;99.90;;;;;;5035712;28;20148;-75
2024/03/15 06:08:36;;;;;;;57.83;7.82;;;10.80;99.90;;;;;;5012922;28;20049;-75
2024/03/15 06:11:02;;;;;;;56.28;6.90;;;10.80;99.90;;;;;;5030744;28;20021;-75
2024/03/15 06:13:27;;;;;;;63.92;7.63;;;10.80;99.90;;;;;;5014262;28;20025;-75
2024/03/15 06:15:53;;;;;;;71.47;7.85;;;10.80;99.90;;;;;;5048135;28;20083;-75
2024/03/15 06:18:19;;;;;;;51.40;7.13;;;10.80;99.90;;;;;;5030632;28;20040;-75
2024/03/15 06:20:44;;;;;;;66.22;7.85;;;10.80;99.90;;;;;;5030494;28;20061;-75
2024/03/15 06:23:10;;;;;;;39.28;6.20;;;10.80;99.90;;;;;;5013959;28;20202;-75
2024/03/15 06:25:36;;;;;;;57.78;7.72;;;10.80;99.90;;;;;;5030104;28;20064;-75
2024/03/15 06:28:06;;;;;;;51.42;7.72;;;10.80;99.90;;;;;;5046710;28;20025;-75
2024/03/15 06:30:42;;;;;;;59.33;6.70;;;10.80;99.90;;;;;;5047819;28;20026;-75
2024/03/15 06:33:10;;;;;;;44.35;5.72;;;10.80;99.90;;;;;;5047956;28;20097;-75
2024/03/15 06:35:35;;;;;;;60.42;7.38;;;10.80;99.90;;;;;;5047565;28;20056;-75
2024/03/15 06:38:09;;;;;;;61.53;7.07;;;10.80;99.90;;;;;;5030082;28;20037;-76
2024/03/15 06:43:35;;;;;;;53.90;7.07;;;10.80;99.90;;;;;;5032909;28;20232;-76
2024/03/15 06:46:19;;;;;;;64.68;7.88;;;10.80;99.90;;;;;;5047063;28;20033;-75
2024/03/15 06:48:56;;;;;;;58.90;7.72;;;10.80;99.90;;;;;;5032231;28;20165;-75
2024/03/15 06:54:11;;;;;;;58.45;8.00;;;10.90;99.90;;;;;;5032309;28;20040;-75
2024/03/15 06:56:37;;;;;;;65.32;7.85;;;10.90;99.90;;;;;;5013384;28;20025;-75
2024/03/15 06:59:03;;;;;;;58.67;8.48;;;10.90;99.90;;;;;;5030018;28;20088;-75
2024/03/15 07:01:30;;;;;;;47.42;6.72;;;10.90;99.90;;;;;;5029775;28;20024;-75
2024/03/15 07:03:56;;;;;;;60.75;6.68;;;10.90;99.90;;;;;;5029605;28;20029;-76
2024/03/15 07:06:21;;;;;;;55.83;8.38;;;10.90;99.90;;;;;;5013271;28;20290;-76
2024/03/15 07:08:51;;;;;;;55.58;6.38;;;10.90;99.90;;;;;;5029642;28;20022;-75
2024/03/15 07:11:18;;;;;;;63.22;7.28;;;10.90;99.90;;;;;;5029408;28;20033;-75
2024/03/15 07:13:43;;;;;;;52.97;7.35;;;10.90;99.90;;;;;;5029678;28;20025;-76
2024/03/15 07:16:09;;;;;;;59.20;7.05;;;10.90;99.90;;;;;;5029584;28;20164;-76
2024/03/15 07:18:35;;;;;;;44.63;7.40;;;10.90;99.90;;;;;;5046726;28;20226;-76
2024/03/15 07:21:01;;;;;;;58.60;7.53;;;10.90;99.90;;;;;;5029089;28;20029;-76
2024/03/15 07:23:27;;;;;;;56.60;8.27;;;11.00;99.90;;;;;;5012652;28;20032;-76
2024/03/15 07:25:56;;;;;;;68.18;8.18;;;10.90;99.90;;;;;;5012716;28;20315;-76
2024/03/15 07:28:23;;;;;;;57.10;8.55;;;11.00;99.90;;;;;;5012951;28;20067;-76
2024/03/15 07:30:54;;;;;;;69.82;8.15;;;10.90;99.90;;;;;;5046069;28;20022;-76
2024/03/15 07:33:20;;;;;;;55.83;6.70;;;11.00;99.90;;;;;;5030209;28;20049;-76
2024/03/15 07:35:48;;;;;;;51.28;7.63;;;10.90;99.90;;;;;;5012830;28;20029;-76
2024/03/15 07:38:15;;;;;;;65.88;7.35;;;10.90;99.90;;;;;;5012900;28;20190;-76
2024/03/15 07:40:41;;;;;;;57.00;6.30;;;11.00;99.90;;;;;;5046386;28;20037;-74
2024/03/15 07:43:08;;;;;;;59.35;7.60;;;11.00;99.90;;;;;;5028727;28;20190;-76
2024/03/15 07:45:35;;;;;;;64.32;7.90;;;11.00;99.90;;;;;;5028579;28;20083;-76
2024/03/15 07:48:01;;;;;;;46.88;7.20;;;11.00;99.90;;;;;;5028727;28;20237;-75
2024/03/15 07:50:26;;;;;;;66.13;7.07;;;11.00;99.90;;;;;;5046280;28;20017;-76
2024/03/15 07:52:53;;;;;;;61.92;7.80;;;11.00;99.90;;;;;;5028799;28;20036;-75
2024/03/15 07:55:20;;;;;;;53.70;7.05;;;11.00;99.90;;;;;;5012249;28;20034;-76
2024/03/15 07:57:46;;;;;;;50.20;6.80;;;11.00;99.90;;;;;;5028651;28;20052;-75
2024/03/15 08:00:14;;;;;;;48.88;6.50;;;11.10;99.90;;;;;;5045822;28;20021;-76
2024/03/15 08:02:40;;;;;;;61.55;7.28;;;11.10;99.90;;;;;;5046154;28;20091;-75
2024/03/15 08:05:06;;;;;;;51.90;6.90;;;11.10;99.90;;;;;;5028624;28;20148;-75
2024/03/15 08:07:32;;;;;;;53.38;6.88;;;11.10;99.90;;;;;;5028739;28;20329;-75
2024/03/15 08:09:58;;;;;;;49.95;6.97;;;11.10;99.90;;;;;;5028228;28;20306;-76
2024/03/15 08:12:24;;;;;;;58.97;8.57;;;11.20;99.90;;;;;;5028597;28;20084;-76
2024/03/15 08:14:50;;;;;;;59.00;7.18;;;11.20;99.90;;;;;;5028435;28;20146;-76
2024/03/15 08:17:16;;;;;;;58.80;8.15;;;11.20;99.90;;;;;;5028284;28;20230;-76
2024/03/15 08:19:42;;;;;;;41.97;5.38;;;11.30;99.90;;;;;;5028322;28;20036;-75
2024/03/15 08:22:09;;;;;;;49.13;5.28;;;11.30;99.90;;;;;;5028512;28;20029;-76
2024/03/15 08:24:37;;;;;;;42.03;5.82;;;11.20;99.90;;;;;;5044596;28;20040;-75
2024/03/15 08:27:03;;;;;;;43.70;6.07;;;11.30;99.90;;;;;;5012074;28;20023;-76
2024/03/15 08:29:28;;;;;;;49.95;7.00;;;11.50;99.90;;;;;;5027819;28;20041;-75
2024/03/15 08:31:54;;;;;;;49.03;6.95;;;11.70;99.90;;;;;;5043767;28;20278;-76
2024/03/15 08:34:21;;;;;;;59.45;7.00;;;11.60;99.90;;;;;;5027877;28;20029;-76
2024/03/15 08:36:47;;;;;;;52.58;6.43;;;11.70;99.90;;;;;;5028197;28;20079;-76
2024/03/15 08:39:15;;;;;;;60.10;8.80;;;11.80;99.90;;;;;;5028186;28;20064;-77
2024/03/15 08:41:42;;;;;;;41.15;7.43;;;11.70;99.90;;;;;;5011535;28;20260;-76
2024/03/15 08:44:08;;;;;;;54.80;10.50;;;11.50;99.90;;;;;;5028192;28;20229;-77
2024/03/15 08:46:36;;;;;;;44.05;5.20;;;11.60;99.90;;;;;;5027057;28;20243;-77
2024/03/15 08:49:02;;;;;;;48.08;6.60;;;11.60;99.90;;;;;;5027882;28;20021;-77
2024/03/15 08:51:28;;;;;;;54.30;7.88;;;11.50;99.90;;;;;;5044759;28;20056;-77
2024/03/15 08:53:53;;;;;;;53.58;6.70;;;11.50;99.90;;;;;;5027932;28;20066;-76
2024/03/15 08:56:19;;;;;;;53.88;7.00;;;11.60;99.90;;;;;;5026971;28;20037;-76
2024/03/15 08:58:49;;;;;;;50.92;6.70;;;11.70;99.90;;;;;;5027660;28;20029;-75
2024/03/15 09:01:18;;;;;;;35.10;5.70;;;11.80;99.90;;;;;;5043749;28;20199;-76
2024/03/15 09:03:44;;;;;;;55.27;8.73;;;11.80;99.90;;;;;;5027893;28;20139;-76
2024/03/15 09:06:11;;;;;;;53.05;8.40;;;12.30;99.90;;;;;;5027206;28;20261;-76
2024/03/15 09:08:36;;;;;;;37.47;7.88;;;12.30;99.90;;;;;;5043989;28;20382;-76
2024/03/15 09:11:03;;;;;;;30.10;6.45;;;12.30;99.90;;;;;;5045219;28;20060;-76
2024/03/15 09:13:29;;;;;;;32.42;5.22;;;12.40;99.90;;;;;;5027713;28;20056;-76
2024/03/15 09:15:58;;;;;;;40.42;7.18;;;12.30;99.90;;;;;;5027488;28;20033;-76
2024/03/15 09:18:24;;;;;;;35.42;5.35;;;12.50;99.90;;;;;;5028042;28;20087;-76
2024/03/15 09:20:54;;;;;;;27.38;4.20;;;12.30;99.90;;;;;;5027142;28;20291;-75
2024/03/15 09:23:20;;;;;;;;;;;12.10;99.90;;;;;;5045322;28;20102;-76
2024/03/15 09:25:46;;;;;;;46.70;6.40;;;12.00;99.90;;;;;;5043571;28;19912;-76
2024/03/15 09:28:12;;;;;;;32.28;5.10;;;11.90;99.90;;;;;;5011020;28;20105;-77
2024/03/15 09:30:53;;;;;;;27.02;4.82;;;11.80;99.90;;;;;;5010985;28;20029;-76
2024/03/15 09:33:19;;;;;;;32.92;4.53;;;11.70;99.90;;;;;;5012696;28;20021;-76
2024/03/15 09:35:46;;;;;;;34.20;4.72;;;11.70;99.90;;;;;;5027160;28;20297;-77
2024/03/15 09:38:12;;;;;;;28.20;4.65;;;11.70;99.90;;;;;;5027550;28;20287;-76
2024/03/15 09:40:38;;;;;;;24.30;4.20;;;11.90;99.90;;;;;;5027365;28;20071;-77
2024/03/15 09:43:13;;;;;;;28.92;5.03;;;12.20;99.90;;;;;;5029286;28;20096;-76
2024/03/15 09:45:39;;;;;;;30.30;5.10;;;12.50;99.90;;;;;;5030626;28;20072;-77
2024/03/15 09:48:09;;;;;;;16.08;4.45;;;13.20;99.90;;;;;;5014372;28;20044;-77
2024/03/15 09:50:35;;;;;;;29.02;4.18;;;13.80;99.90;;;;;;5030620;28;20082;-77
2024/03/15 09:53:01;;;;;;;18.33;2.88;;;14.00;99.90;;;;;;5014243;28;20155;-76
2024/03/15 09:55:27;;;;;;;22.70;3.85;;;14.40;99.90;;;;;;5030565;28;20214;-77
2024/03/15 09:57:52;;;;;;;14.27;3.20;;;14.70;99.90;;;;;;5047945;28;20029;-77
2024/03/15 10:00:21;;;;;;;16.20;2.20;;;14.80;99.90;;;;;;5014345;28;20048;-77
2024/03/15 10:02:47;;;;;;;16.95;2.38;;;14.40;99.90;;;;;;5030760;28;20249;-77
2024/03/15 10:05:16;;;;;;;13.32;1.98;;;14.00;99.90;;;;;;5030303;28;20053;-77
2024/03/15 10:07:42;;;;;;;13.77;1.80;;;13.70;99.90;;;;;;5014608;28;20068;-76
2024/03/15 10:10:12;;;;;;;10.88;2.25;;;13.40;99.90;;;;;;5030395;28;20279;-77
2024/03/15 10:12:47;;;;;;;9.98;2.03;;;13.60;99.90;;;;;;5030999;28;20028;-77
2024/03/15 10:15:17;;;;;;;9.65;1.80;;;13.60;99.90;;;;;;5014038;28;20025;-77
2024/03/15 10:17:44;;;;;;;5.72;2.25;;;13.40;99.90;;;;;;5030153;28;20060;-77
2024/03/15 10:20:11;;;;;;;6.68;1.60;;;13.20;99.90;;;;;;5030304;28;20037;-76
2024/03/15 10:22:38;;;;;;;7.25;2.15;;;13.30;99.90;;;;;;5030047;28;20108;-77
2024/03/15 10:25:06;;;;;;;13.20;2.65;;;13.40;99.90;;;;;;5030225;28;20021;-76
2024/03/15 10:27:32;;;;;;;5.70;1.50;;;13.80;99.90;;;;;;5030469;28;20029;-76
2024/03/15 10:29:58;;;;;;;3.42;0.93;;;14.40;99.90;;;;;;5030031;28;20025;-76
2024/03/15 10:32:25;;;;;;;1.00;0.75;;;14.70;99.90;;;;;;5030229;28;20036;-76
2024/03/15 10:34:50;;;;;;;2.60;0.90;;;15.40;99.90;;;;;;5013592;28;20039;-75
2024/03/15 10:37:16;;;;;;;2.42;1.30;;;15.90;99.90;;;;;;5013317;28;20033;-75
2024/03/15 10:39:42;;;;;;;2.50;0.90;;;15.40;99.90;;;;;;5029676;28;20033;-75
2024/03/15 10:42:08;;;;;;;2.03;0.77;;;14.60;99.90;;;;;;5030026;28;20036;-75
2024/03/15 10:44:33;;;;;;;2.40;0.90;;;14.20;99.90;;;;;;5014662;28;20156;-75
2024/03/15 10:46:59;;;;;;;2.63;0.80;;;14.00;99.90;;;;;;5026271;28;20045;-75
2024/03/15 10:49:25;;;;;;;3.22;1.00;;;14.40;99.90;;;;;;5026431;28;20201;-76
2024/03/15 10:51:51;;;;;;;1.60;0.70;;;15.30;99.90;;;;;;5025824;28;20079;-76
2024/03/15 10:54:19;;;;;;;9.77;8.85;;;16.10;99.90;;;;;;5025146;28;20204;-76
2024/03/15 10:56:46;;;;;;;3.10;1.30;;;16.00;99.90;;;;;;5026391;28;20021;-76
2024/03/15 10:59:12;;;;;;;4.50;1.05;;;15.40;99.90;;;;;;5009673;28;20026;-77
2024/03/15 11:01:39;;;;;;;2.90;1.00;;;14.90;99.90;;;;;;5025954;28;20018;-76
2024/03/15 11:04:07;;;;;;;2.25;0.90;;;14.30;99.90;;;;;;5010057;28;20296;-76
2024/03/15 11:06:40;;;;;;;4.38;1.30;;;14.00;99.90;;;;;;5026473;28;20104;-76
2024/03/15 11:09:23;;;;;;;2.80;1.17;;;13.50;99.90;;;;;;5026095;28;20263;-76
2024/03/15 11:12:03;;;;;;;3.45;1.40;;;13.30;99.90;;;;;;5010960;28;20216;-77
2024/03/15 11:14:35;;;;;;;3.40;1.20;;;13.30;99.90;;;;;;5026976;28;20030;-76
2024/03/15 11:17:05;;;;;;;5.82;1.40;;;13.00;99.90;;;;;;5025694;28;20038;-76
2024/03/15 11:19:41;;;;;;;;;;;12.80;99.90;;;;;;5026184;28;20347;-76
2024/03/15 11:22:14;;;;;;;6.30;1.25;;;13.10;99.90;;;;;;5026573;28;19969;-77
2024/03/15 11:24:41;;;;;;;2.72;1.20;;;13.20;99.90;;;;;;5026421;28;20030;-76
2024/03/15 11:27:17;;;;;;;3.92;1.08;;;13.20;99.90;;;;;;5025482;28;20107;-77
2024/03/15 11:29:43;;;;;;;6.60;2.78;;;13.30;99.90;;;;;;5026369;28;20134;-76
2024/03/15 11:32:12;;;;;;;5.72;1.50;;;14.10;99.90;;;;;;5026029;28;20022;-76
2024/03/15 11:34:39;;;;;;;4.68;1.15;;;14.60;99.90;;;;;;5009139;28;20156;-76
2024/03/15 11:37:07;;;;;;;2.58;1.10;;;15.20;99.90;;;;;;5026998;28;20120;-77
2024/03/15 11:39:33;;;;;;;8.52;1.77;;;15.00;99.90;;;;;;5025298;28;20049;-77
2024/03/15 11:42:03;;;;;;;6.00;1.40;;;15.30;99.90;;;;;;5025191;28;20021;-77
2024/03/15 11:44:29;;;;;;;3.83;1.15;;;14.90;99.90;;;;;;5025438;28;20164;-77
2024/03/15 11:46:54;;;;;;;4.28;1.55;;;15.30;99.90;;;;;;5008465;28;20268;-78
2024/03/15 11:49:20;;;;;;;5.07;1.30;;;15.50;99.90;;;;;;5025102;28;20026;-77
2024/03/15 11:51:58;;;;;;;6.78;1.67;;;15.90;99.90;;;;;;5024727;28;20033;-77
2024/03/15 11:54:24;;;;;;;6.00;1.40;;;16.00;99.90;;;;;;5025355;28;20228;-77
2024/03/15 11:56:57;;;;;;;6.25;1.30;;;15.60;99.90;;;;;;5024761;28;20022;-76
2024/03/15 11:59:25;;;;;;;12.23;4.22;;;15.30;99.90;;;;;;5024917;28;20161;-76
2024/03/15 12:01:50;;;;;;;9.48;3.33;;;15.10;99.90;;;;;;5026032;28;20026;-76
2024/03/15 12:04:16;;;;;;;6.95;1.63;;;14.80;99.90;;;;;;5024647;28;20244;-75
2024/03/15 12:06:42;;;;;;;6.95;2.03;;;14.40;99.90;;;;;;5024652;28;20175;-78
2024/03/15 12:09:12;;;;;;;6.15;2.22;;;14.10;99.90;;;;;;5024505;28;20022;-76
2024/03/15 12:11:40;;;;;;;4.60;1.67;;;13.70;99.90;;;;;;5009047;28;20092;-76
2024/03/15 12:14:11;;;;;;;9.50;3.78;;;13.60;99.90;;;;;;5025802;28;20018;-76
2024/03/15 12:16:36;;;;;;;5.60;1.58;;;13.40;99.90;;;;;;5024336;28;20070;-76
2024/03/15 12:19:02;;;;;;;6.00;1.48;;;13.10;99.90;;;;;;5024730;28;20033;-75
2024/03/15 12:21:29;;;;;;;8.55;1.95;;;13.10;99.90;;;;;;5024320;28;20090;-76
2024/03/15 12:23:54;;;;;;;5.10;1.30;;;13.90;99.90;;;;;;5024412;28;20295;-76
2024/03/15 12:26:20;;;;;;;5.40;1.50;;;15.00;99.90;;;;;;5007992;28;20029;-76
2024/03/15 12:28:47;;;;;;;5.07;1.35;;;15.40;99.90;;;;;;5024315;28;20018;-77
2024/03/15 12:31:13;;;;;;;8.38;1.50;;;15.10;99.90;;;;;;5023998;28;20072;-75
2024/03/15 12:33:38;;;;;;;4.80;1.27;;;14.90;99.90;;;;;;5024281;28;20025;-77
2024/03/15 12:36:05;;;;;;;3.03;1.05;;;14.70;99.90;;;;;;5025498;28;20874;-77
2024/03/15 12:38:30;;;;;;;5.00;1.20;;;14.60;99.90;;;;;;5008374;28;20117;-77
2024/03/15 12:40:56;;;;;;;3.10;1.50;;;14.50;99.90;;;;;;5025505;28;20022;-77
2024/03/15 12:43:23;;;;;;;4.88;2.03;;;15.40;99.90;;;;;;5024467;28;20025;-77